Aviation Digital Data Service (ADDS)

Output produced by METARs form (0706 UTC 26 July 2014)
found at http://www.aviationweather.gov/adds/metars/
 
KWWD 260655Z AUTO 00000KT 10SM CLR 18/15 A3002 RMK AO1